Terminal Aerodrome Forecast
Issued by NWS

Home | Current Version | Previous Version | Text Only | Print | Product List | Glossary On
Versions: 1 2 3 4 5 6 7 8 9 10 11 12 13 14 15 16 17 18 19 20 21 22 23 24 25 26 27 28 29 30 31 32 33 34 35 36 37 38 39 40 41 42 43 44 45 46 47 48 49 50
000
FTUS44 KHGX 250522 AAA
TAFCXO
TAF AMD
KCXO 250522Z 2505/2606 00000KT 5SM BR SCT250
     FM250800 VRB03KT 5SM BR SCT007 BKN012
      TEMPO 2511/2513 2SM BR BKN007
     FM251400 05005KT P6SM VCSH BKN025
     FM251600 05005KT P6SM VCTS BKN040CB
     FM252200 06005KT P6SM BKN050 BKN120=

USA.gov is the U.S. government's official web portal to all federal, state and local government web resources and services.